Time;durP1;ratioP1;P1;durP2;ratioP2;P2;SDS_P1;SDS_P2;PMS_P1;PMS_P2;Temp;Humidity;BMP_temperature;BMP_pressure;BME280_temperature;BME280_humidity;BME280_pressure;Samples;Min_cycle;Max_cycle;Signal;HPM_P1;HPM_P2
2022/09/29 00:01:06;;;;;;;4.10;3.00;;;;;;;7.64;100.00;95202.84;5083174;28;20103;-67
2022/09/29 00:03:31;;;;;;;6.43;3.10;;;;;;;7.69;100.00;95207.13;5083185;28;20032;-67
2022/09/29 00:05:57;;;;;;;7.20;4.30;;;;;;;7.74;100.00;95207.56;5086396;28;20029;-65
2022/09/29 00:08:25;;;;;;;4.65;2.83;;;;;;;7.78;100.00;95199.38;5075382;28;20028;-64
2022/09/29 00:10:51;;;;;;;5.93;3.28;;;;;;;7.68;100.00;95211.78;5072640;28;20029;-65
2022/09/29 00:13:17;;;;;;;3.92;2.10;;;;;;;7.56;100.00;95209.41;5073874;28;20036;-64
2022/09/29 00:15:43;;;;;;;2.03;1.58;;;;;;;7.41;100.00;95211.28;5052675;28;20036;-65
2022/09/29 00:18:10;;;;;;;6.28;2.00;;;;;;;7.22;100.00;95207.72;5053999;28;20029;-64
2022/09/29 00:20:36;;;;;;;3.42;1.98;;;;;;;7.13;100.00;95203.75;5073385;28;20805;-65
2022/09/29 00:23:02;;;;;;;5.90;2.25;;;;;;;7.05;100.00;95205.66;5075048;28;20032;-65
2022/09/29 00:25:28;;;;;;;5.22;2.85;;;;;;;6.91;100.00;95203.63;5076451;28;20033;-66
2022/09/29 00:27:53;;;;;;;4.90;2.95;;;;;;;6.84;100.00;95204.38;5073784;28;20028;-66
2022/09/29 00:30:19;;;;;;;4.43;3.13;;;;;;;6.84;100.00;95200.84;5064727;28;20025;-67
2022/09/29 00:32:44;;;;;;;4.70;3.00;;;;;;;6.83;100.00;95196.59;5072417;28;20202;-66
2022/09/29 00:35:10;;;;;;;5.57;2.88;;;;;;;6.79;100.00;95191.13;5067984;28;20041;-66
2022/09/29 00:37:35;;;;;;;6.63;2.97;;;;;;;6.74;100.00;95185.25;5068705;28;20477;-66
2022/09/29 00:40:03;;;;;;;5.40;3.05;;;;;;;6.70;100.00;95179.78;5066768;28;20585;-66
2022/09/29 00:42:30;;;;;;;8.43;2.97;;;;;;;6.70;100.00;95180.56;5067455;28;20428;-67
2022/09/29 00:45:31;;;;;;;5.47;2.80;;;;;;;6.66;100.00;95162.66;5071260;28;20033;-66
2022/09/29 00:48:06;;;;;;;4.90;2.50;;;;;;;6.60;100.00;95170.38;5028974;28;20048;-66
2022/09/29 00:50:46;;;;;;;5.72;2.58;;;;;;;6.61;100.00;95166.53;5054811;28;20063;-66
2022/09/29 00:53:13;;;;;;;5.50;2.60;;;;;;;6.60;100.00;95164.94;5071589;28;20024;-66
2022/09/29 00:56:10;;;;;;;4.47;2.90;;;;;;;6.59;100.00;95160.69;5071168;28;20056;-66
2022/09/29 00:58:44;;;;;;;3.33;2.25;;;;;;;6.60;100.00;95164.94;5059449;28;20075;-67
2022/09/29 01:01:12;;;;;;;3.70;2.63;;;;;;;6.63;100.00;95166.16;5072547;28;20021;-66
2022/09/29 01:03:45;;;;;;;3.28;2.45;;;;;;;6.63;100.00;95168.88;5077700;28;20052;-67
2022/09/29 01:06:18;;;;;;;4.93;2.15;;;;;;;6.64;100.00;95171.19;5084678;28;20039;-66
2022/09/29 01:09:00;;;;;;;4.28;2.58;;;;;;;6.63;100.00;95171.59;5071211;28;20039;-67
2022/09/29 01:11:26;;;;;;;6.47;2.35;;;;;;;6.59;100.00;95166.13;5077623;28;20393;-68
2022/09/29 01:13:54;;;;;;;5.30;2.47;;;;;;;6.60;100.00;95158.72;5067210;28;20032;-67
2022/09/29 01:16:20;;;;;;;3.63;2.50;;;;;;;6.66;100.00;95152.56;5086267;28;20064;-67
2022/09/29 01:18:46;;;;;;;3.15;2.15;;;;;;;6.86;100.00;95149.56;5075735;28;20479;-67
2022/09/29 01:21:36;;;;;;;4.43;2.15;;;;;;;6.94;100.00;95148.44;5077254;28;20068;-67
2022/09/29 01:24:39;;;;;;;4.35;2.58;;;;;;;6.89;100.00;95151.53;5077615;28;20032;-66
2022/09/29 01:27:19;;;;;;;4.55;2.95;;;;;;;6.79;100.00;95149.50;5061703;28;20052;-67
2022/09/29 01:30:00;;;;;;;5.03;2.42;;;;;;;6.80;100.00;95140.97;5066382;28;20040;-68
2022/09/29 01:32:37;;;;;;;5.22;2.80;;;;;;;6.69;100.00;95142.84;5079203;28;20481;-65
2022/09/29 01:35:08;;;;;;;7.80;2.78;;;;;;;6.62;100.00;95146.31;5086131;28;20037;-67
2022/09/29 01:37:43;;;;;;;5.55;3.42;;;;;;;6.61;100.00;95136.59;5078216;28;20596;-67
2022/09/29 01:40:21;;;;;;;5.70;3.42;;;;;;;6.61;100.00;95136.59;5068006;28;20028;-68
2022/09/29 01:42:54;;;;;;;4.35;3.42;;;;;;;6.57;100.00;95130.34;5074180;28;20024;-68
2022/09/29 01:45:28;;;;;;;7.22;4.15;;;;;;;6.53;100.00;95132.25;5072752;28;20087;-66
2022/09/29 01:47:58;;;;;;;4.68;3.20;;;;;;;6.51;100.00;95138.06;5064460;28;20396;-68
2022/09/29 01:50:30;;;;;;;3.85;2.95;;;;;;;6.53;100.00;95123.31;5074123;28;20032;-69
2022/09/29 01:53:01;;;;;;;5.20;3.33;;;;;;;6.50;100.00;95122.16;5074263;28;20048;-66
2022/09/29 01:55:30;;;;;;;7.43;3.42;;;;;;;6.47;100.00;95117.47;5072053;28;20031;-68
2022/09/29 01:58:04;;;;;;;5.85;3.60;;;;;;;6.47;100.00;95140.00;5071652;28;20521;-68
2022/09/29 02:00:36;;;;;;;4.55;3.30;;;;;;;6.53;100.00;95142.34;5073897;28;20037;-67
2022/09/29 02:03:10;;;;;;;5.13;3.25;;;;;;;6.57;100.00;95140.44;5064223;28;20107;-68
2022/09/29 02:05:50;;;;;;;5.30;3.20;;;;;;;6.61;100.00;95138.50;5072162;28;20040;-67
2022/09/29 02:08:24;;;;;;;6.30;3.78;;;;;;;6.60;100.00;95142.41;5065126;28;20033;-67
2022/09/29 02:11:01;;;;;;;4.50;3.25;;;;;;;6.64;100.00;95143.97;5068748;28;20032;-69
2022/09/29 02:13:34;;;;;;;5.00;3.75;;;;;;;6.77;100.00;95136.31;5070625;28;20400;-66
2022/09/29 02:16:01;;;;;;;6.63;3.22;;;;;;;6.85;100.00;95139.84;5075004;28;20028;-66
2022/09/29 02:18:33;;;;;;;4.63;3.47;;;;;;;6.78;100.00;95143.28;5072459;28;20036;-65
2022/09/29 02:21:00;;;;;;;7.43;3.60;;;;;;;6.67;100.00;95139.72;5073121;28;20241;-66
2022/09/29 02:23:26;;;;;;;6.10;3.72;;;;;;;6.63;100.00;95136.22;5073286;28;20033;-67
2022/09/29 02:25:54;;;;;;;8.32;3.75;;;;;;;6.59;100.00;95136.19;5072612;28;20031;-66
2022/09/29 02:28:19;;;;;;;6.28;3.80;;;;;;;6.56;100.00;95131.50;5071479;28;20047;-65
2022/09/29 02:30:45;;;;;;;7.32;3.65;;;;;;;6.59;100.00;95132.66;5071169;28;20104;-66
2022/09/29 02:33:21;;;;;;;5.40;3.25;;;;;;;6.63;100.00;95126.09;5072177;28;20531;-65
2022/09/29 02:36:12;;;;;;;4.80;3.10;;;;;;;6.65;100.00;95117.56;5071269;28;20541;-66
2022/09/29 02:39:00;;;;;;;5.85;3.03;;;;;;;6.59;100.00;95116.34;5071048;28;20124;-65
2022/09/29 02:41:31;;;;;;;4.78;3.10;;;;;;;6.58;100.00;95120.25;5072107;28;20492;-65
2022/09/29 02:44:14;;;;;;;3.80;2.65;;;;;;;6.66;100.00;95119.13;5072094;28;20111;-65
2022/09/29 02:46:54;;;;;;;4.03;2.60;;;;;;;6.81;100.00;95128.16;5070201;28;20131;-65
2022/09/29 02:49:26;;;;;;;5.10;2.58;;;;;;;6.89;100.00;95124.31;5074537;28;20342;-65
2022/09/29 02:51:57;;;;;;;4.10;2.47;;;;;;;6.78;100.00;95120.75;5078587;28;20028;-64
2022/09/29 02:54:29;;;;;;;4.07;2.03;;;;;;;6.73;100.00;95124.59;5073088;28;20116;-65
2022/09/29 02:57:13;;;;;;;5.28;2.72;;;;;;;6.59;100.00;95117.16;5074287;28;20385;-65
2022/09/29 02:59:45;;;;;;;6.00;3.00;;;;;;;6.52;100.00;95111.66;5072093;28;20042;-66
2022/09/29 03:02:15;;;;;;;3.92;2.78;;;;;;;6.49;100.00;95115.13;5065391;28;20028;-65
2022/09/29 03:04:40;;;;;;;5.95;2.75;;;;;;;6.52;100.00;95111.66;5069978;28;20123;-65
2022/09/29 03:07:06;;;;;;;4.20;2.67;;;;;;;6.54;100.00;95117.50;5071055;28;20139;-65
2022/09/29 03:09:32;;;;;;;4.82;2.88;;;;;;;6.57;100.00;95115.94;5070667;28;20497;-66
2022/09/29 03:11:57;;;;;;;5.45;2.78;;;;;;;6.60;100.00;95117.94;5062315;28;20074;-65
2022/09/29 03:14:23;;;;;;;5.20;2.92;;;;;;;6.72;100.00;95114.09;5073074;28;20025;-65
2022/09/29 03:16:48;;;;;;;4.10;2.85;;;;;;;6.61;100.00;95108.59;5083225;28;20039;-66
2022/09/29 03:19:13;;;;;;;4.80;3.05;;;;;;;6.54;100.00;95103.13;5076196;28;20093;-66
2022/09/29 03:21:39;;;;;;;5.30;2.90;;;;;;;6.49;100.00;95096.09;5063561;28;20021;-66
2022/09/29 03:24:05;;;;;;;4.28;2.80;;;;;;;6.48;100.00;95098.03;5071254;28;20035;-65
2022/09/29 03:26:30;;;;;;;3.97;2.75;;;;;;;6.47;100.00;95101.13;5069546;28;20423;-66
2022/09/29 03:28:56;;;;;;;4.35;2.85;;;;;;;6.50;100.00;95095.72;5071454;28;20040;-65
2022/09/29 03:31:21;;;;;;;4.70;3.15;;;;;;;6.46;100.00;95094.13;5065901;28;20103;-67
2022/09/29 03:33:47;;;;;;;4.53;2.80;;;;;;;6.43;100.00;95103.06;5071167;28;20052;-66
2022/09/29 03:36:12;;;;;;;6.72;2.90;;;;;;;6.42;100.00;95102.25;5070731;28;20083;-67
2022/09/29 03:38:38;;;;;;;6.32;3.22;;;;;;;6.44;100.00;95099.94;5071372;28;20028;-67
2022/09/29 03:41:04;;;;;;;4.55;2.97;;;;;;;6.43;100.00;95106.56;5069840;28;20440;-66
2022/09/29 03:43:30;;;;;;;5.63;2.70;;;;;;;6.45;100.00;95108.91;5072146;28;20409;-66
2022/09/29 03:45:56;;;;;;;5.13;3.00;;;;;;;6.45;100.00;95100.75;5070774;28;20039;-65
2022/09/29 03:48:22;;;;;;;5.15;3.05;;;;;;;6.45;100.00;95109.66;5072498;28;20103;-65
2022/09/29 03:50:50;;;;;;;6.03;3.17;;;;;;;6.45;100.00;95104.22;5077210;28;20111;-67
2022/09/29 03:53:16;;;;;;;3.60;2.72;;;;;;;6.49;100.00;95101.53;5069295;28;20496;-66
2022/09/29 03:55:48;;;;;;;4.97;3.38;;;;;;;6.50;100.00;95109.31;5063641;28;20035;-66
2022/09/29 03:58:15;;;;;;;4.95;2.78;;;;;;;6.53;100.00;95112.44;5075533;28;20035;-67
2022/09/29 04:00:41;;;;;;;3.63;2.75;;;;;;;6.55;100.00;95112.84;5072412;28;20039;-66
2022/09/29 04:03:06;;;;;;;4.03;2.67;;;;;;;6.62;100.00;95116.38;5071506;28;20024;-67
2022/09/29 04:05:37;;;;;;;3.25;2.50;;;;;;;6.68;100.00;95105.91;5085620;28;20028;-66
2022/09/29 04:08:03;;;;;;;5.15;3.08;;;;;;;6.62;100.00;95105.50;5068308;28;20036;-67
2022/09/29 04:10:29;;;;;;;3.53;2.60;;;;;;;6.64;100.00;95111.31;5061747;28;20025;-67
2022/09/29 04:12:55;;;;;;;4.32;3.00;;;;;;;6.65;100.00;95109.41;5068821;28;20415;-66
2022/09/29 04:15:20;;;;;;;4.25;2.75;;;;;;;6.67;100.00;95107.84;5052522;28;20036;-66
2022/09/29 04:17:46;;;;;;;4.03;2.65;;;;;;;6.81;100.00;95101.72;5067685;28;20106;-66
2022/09/29 04:20:11;;;;;;;4.07;2.78;;;;;;;6.91;100.00;95113.03;5063825;28;20437;-66
2022/09/29 04:22:37;;;;;;;3.22;2.35;;;;;;;7.05;100.00;95107.66;5061456;28;20025;-64
2022/09/29 04:25:02;;;;;;;3.83;2.67;;;;;;;7.14;100.00;95105.38;5071094;28;20048;-66
2022/09/29 04:27:28;;;;;;;4.18;2.60;;;;;;;7.18;100.00;95108.88;5061784;28;20033;-65
2022/09/29 04:29:53;;;;;;;4.10;2.95;;;;;;;6.89;100.00;95097.84;5068916;28;20047;-67
2022/09/29 04:32:20;;;;;;;6.28;3.38;;;;;;;6.84;100.00;95109.13;5070258;28;20489;-66
2022/09/29 04:34:47;;;;;;;4.80;3.53;;;;;;;6.79;100.00;95104.03;5073205;28;20029;-66
2022/09/29 04:37:12;;;;;;;4.95;3.88;;;;;;;6.73;100.00;95110.22;5065141;28;20028;-66
2022/09/29 04:39:38;;;;;;;13.00;4.15;;;;;;;6.72;100.00;95103.22;5076375;28;20058;-65
2022/09/29 04:42:03;;;;;;;8.32;4.47;;;;;;;6.66;100.00;95111.75;5075694;28;20385;-65
2022/09/29 04:44:29;;;;;;;8.02;4.32;;;;;;;6.65;100.00;95101.25;5075493;28;20097;-65
2022/09/29 04:46:54;;;;;;;6.28;4.65;;;;;;;6.65;100.00;95114.84;5070596;28;20036;-66
2022/09/29 04:49:20;;;;;;;7.55;5.18;;;;;;;6.64;100.00;95111.31;5069273;28;20082;-65
2022/09/29 04:51:46;;;;;;;6.97;5.28;;;;;;;6.65;100.00;95112.13;5073645;28;20067;-66
2022/09/29 04:54:12;;;;;;;7.82;5.10;;;;;;;6.67;100.00;95110.56;5068195;28;20059;-65
2022/09/29 04:56:37;;;;;;;6.50;4.40;;;;;;;6.68;100.00;95111.34;5071774;28;20063;-65
2022/09/29 04:59:03;;;;;;;8.25;4.90;;;;;;;6.65;100.00;95101.25;5074388;28;20370;-65
2022/09/29 05:01:29;;;;;;;12.35;5.03;;;;;;;6.65;100.00;95103.97;5073544;28;20024;-65
2022/09/29 05:03:54;;;;;;;7.20;4.53;;;;;;;6.68;100.00;95106.72;5072891;28;20393;-65
2022/09/29 05:06:20;;;;;;;6.40;4.68;;;;;;;6.68;100.00;95116.78;5073900;28;20099;-66
2022/09/29 05:08:45;;;;;;;8.18;4.50;;;;;;;6.63;100.00;95107.06;5078967;28;20036;-66
2022/09/29 05:11:11;;;;;;;7.15;5.07;;;;;;;6.64;100.00;95099.69;5087218;28;20043;-67
2022/09/29 05:13:36;;;;;;;7.55;5.30;;;;;;;6.65;100.00;95103.97;5086184;28;20056;-66
2022/09/29 05:16:03;;;;;;;7.65;4.57;;;;;;;6.66;100.00;95100.88;5084969;28;20040;-66
2022/09/29 05:18:29;;;;;;;6.45;4.85;;;;;;;6.66;100.00;95103.59;5075577;28;20105;-65
2022/09/29 05:20:55;;;;;;;6.68;4.60;;;;;;;6.79;100.00;95105.97;5075866;28;20037;-66
2022/09/29 05:23:20;;;;;;;7.00;4.68;;;;;;;6.81;100.00;95112.59;5076009;28;20107;-66
2022/09/29 05:25:46;;;;;;;6.70;4.60;;;;;;;6.76;100.00;95112.97;5077410;28;20035;-66
2022/09/29 05:28:14;;;;;;;7.13;4.95;;;;;;;6.74;100.00;95109.84;5075485;28;20044;-66
2022/09/29 05:30:40;;;;;;;5.70;4.05;;;;;;;6.84;100.00;95128.19;5072319;28;20036;-66
2022/09/29 05:33:05;;;;;;;5.72;3.80;;;;;;;6.88;100.00;95118.09;5061543;28;20059;-66
2022/09/29 05:35:31;;;;;;;6.28;3.95;;;;;;;7.08;100.00;95118.56;5063524;28;20489;-65
2022/09/29 05:37:56;;;;;;;9.00;4.38;;;;;;;7.21;100.00;95118.22;5072627;28;20059;-65
2022/09/29 05:40:25;;;;;;;4.70;3.33;;;;;;;7.13;100.00;95122.88;5073277;28;20024;-65
2022/09/29 05:42:50;;;;;;;5.25;3.72;;;;;;;7.04;100.00;95123.22;5089224;28;20051;-65
2022/09/29 05:45:16;;;;;;;4.53;3.20;;;;;;;6.99;100.00;95120.09;5083788;28;20028;-65
2022/09/29 05:47:43;;;;;;;3.88;2.67;;;;;;;6.95;100.00;95124.72;5077888;28;20048;-64
2022/09/29 05:50:12;;;;;;;4.47;2.70;;;;;;;7.00;100.00;95119.69;5066909;28;20028;-66
2022/09/29 05:52:38;;;;;;;4.50;3.00;;;;;;;7.04;100.00;95130.59;5073273;28;20036;-65
2022/09/29 05:55:04;;;;;;;3.92;3.00;;;;;;;7.02;100.00;95119.31;5072707;28;20032;-65
2022/09/29 05:57:30;;;;;;;3.60;2.67;;;;;;;7.06;100.00;95122.84;5064354;28;20021;-66
2022/09/29 05:59:56;;;;;;;3.60;2.33;;;;;;;7.02;100.00;95131.00;5073179;28;20032;-66
2022/09/29 06:02:22;;;;;;;4.82;2.47;;;;;;;7.07;100.00;95129.84;5069433;28;20552;-65
2022/09/29 06:04:48;;;;;;;4.45;2.58;;;;;;;7.02;100.00;95128.28;5071375;28;20086;-66
2022/09/29 06:07:13;;;;;;;6.65;2.53;;;;;;;7.04;100.00;95128.66;5065369;28;20079;-66
2022/09/29 06:09:39;;;;;;;4.05;2.95;;;;;;;7.10;100.00;95129.06;5061856;28;20508;-65
2022/09/29 06:12:04;;;;;;;4.80;2.67;;;;;;;7.10;100.00;95131.81;5058606;28;20076;-64
2022/09/29 06:14:30;;;;;;;4.60;2.50;;;;;;;7.13;100.00;95138.41;5054616;28;20148;-66
2022/09/29 06:16:55;;;;;;;3.65;2.58;;;;;;;7.16;100.00;95138.44;5063840;28;20063;-64
2022/09/29 06:19:21;;;;;;;5.65;2.70;;;;;;;7.17;100.00;95131.06;5057772;28;20064;-64
2022/09/29 06:21:46;;;;;;;4.93;2.58;;;;;;;7.09;100.00;95132.94;5066605;28;20036;-67
2022/09/29 06:24:12;;;;;;;4.53;2.53;;;;;;;7.17;100.00;95131.06;5067924;28;20040;-64
2022/09/29 06:26:37;;;;;;;4.38;2.38;;;;;;;7.20;100.00;95139.25;5066215;28;20528;-65
2022/09/29 06:29:03;;;;;;;3.72;2.50;;;;;;;7.22;100.00;95142.34;5055714;28;20497;-64
2022/09/29 06:31:30;;;;;;;6.90;3.90;;;;;;;7.31;100.00;95143.94;5057108;28;20083;-66
2022/09/29 06:34:00;;;;;;;6.97;5.40;;;;;;;7.39;100.00;95142.81;5064227;28;20047;-66
2022/09/29 06:39:17;;;;;;;4.95;3.33;;;;;;;7.26;100.00;95148.59;5057762;28;20131;-67
2022/09/29 06:41:50;;;;;;;5.28;2.60;;;;;;;7.23;100.00;95152.06;5062862;28;20123;-65
2022/09/29 06:44:16;;;;;;;6.38;2.78;;;;;;;7.20;100.00;95152.06;5047695;28;20047;-65
2022/09/29 06:46:42;;;;;;;4.95;3.60;;;;;;;7.26;100.00;95151.31;5062669;28;20420;-65
2022/09/29 06:49:08;;;;;;;4.75;2.97;;;;;;;7.42;100.00;95151.00;5058758;28;20161;-66
2022/09/29 06:51:34;;;;;;;4.63;3.00;;;;;;;7.65;100.00;95147.97;5036449;28;20064;-66
2022/09/29 06:54:00;;;;;;;5.28;3.03;;;;;;;7.77;100.00;95154.97;5064331;28;20529;-65
2022/09/29 06:56:25;;;;;;;5.35;3.88;;;;;;;7.98;100.00;95150.75;5047357;28;20053;-66
2022/09/29 06:58:51;;;;;;;5.65;4.20;;;;;;;8.20;100.00;95154.28;5060994;28;20041;-66
2022/09/29 07:01:16;;;;;;;12.48;7.05;;;;;;;8.38;100.00;95149.59;5048826;28;20109;-65
2022/09/29 07:03:41;;;;;;;4.80;3.60;;;;;;;8.55;100.00;95152.72;5063849;28;20532;-66
2022/09/29 07:06:11;;;;;;;6.28;3.38;;;;;;;8.65;100.00;95154.69;5058124;28;20068;-66
2022/09/29 07:08:38;;;;;;;4.22;2.75;;;;;;;8.84;100.00;95160.88;5063859;28;20135;-66
2022/09/29 07:11:08;;;;;;;10.43;4.47;;;;;;;8.99;100.00;95159.69;5049897;28;20484;-65
2022/09/29 07:13:34;;;;;;;;;;;;;;;9.12;100.00;95152.63;5067534;28;20112;-64
2022/09/29 07:16:07;;;;;;;5.78;3.22;;;;;;;9.29;100.00;95161.16;5071547;28;19912;-66
2022/09/29 07:18:34;;;;;;;4.90;3.15;;;;;;;9.33;100.00;95156.47;5062145;28;20520;-69
2022/09/29 07:21:00;;;;;;;6.00;3.85;;;;;;;9.45;100.00;95160.72;5052853;28;20044;-65
2022/09/29 07:23:26;;;;;;;7.00;3.28;;;;;;;9.55;100.00;95162.63;5057430;28;20113;-66
2022/09/29 07:25:52;;;;;;;6.60;3.00;;;;;;;9.64;100.00;95168.44;5062447;28;20505;-66
2022/09/29 07:28:17;;;;;;;5.00;2.45;;;;;;;9.64;100.00;95164.94;5058468;28;20040;-66
2022/09/29 07:30:43;;;;;;;4.28;2.63;;;;;;;9.60;100.00;95170.44;5059288;28;20064;-65
2022/09/29 07:33:09;;;;;;;5.50;2.80;;;;;;;9.53;100.00;95173.19;5050092;28;20536;-65
2022/09/29 07:35:34;;;;;;;3.53;2.53;;;;;;;9.53;100.00;95173.97;5062431;28;20390;-65
2022/09/29 07:37:59;;;;;;;4.82;2.80;;;;;;;9.52;100.00;95168.88;5077142;28;20060;-65
2022/09/29 07:40:26;;;;;;;4.78;2.83;;;;;;;9.58;100.00;95175.50;5059327;28;20052;-66
2022/09/29 07:42:52;;;;;;;4.20;2.67;;;;;;;9.45;100.00;95174.38;5061949;28;20044;-66
2022/09/29 07:45:18;;;;;;;5.18;2.47;;;;;;;9.46;100.00;95184.91;5047307;28;20051;-66
2022/09/29 07:47:43;;;;;;;3.85;2.70;;;;;;;9.60;100.00;95177.81;5061976;28;20048;-66
2022/09/29 07:50:09;;;;;;;5.88;2.92;;;;;;;9.73;100.00;95185.19;5058673;28;20060;-66
2022/09/29 07:52:35;;;;;;;4.32;3.10;;;;;;;9.77;100.00;95185.94;5053968;28;20060;-66
2022/09/29 07:55:01;;;;;;;3.28;2.42;;;;;;;9.85;100.00;95183.97;5062963;28;20098;-66
2022/09/29 07:57:27;;;;;;;4.45;2.60;;;;;;;9.81;100.00;95185.16;5072163;28;20042;-66
2022/09/29 07:59:53;;;;;;;4.60;2.83;;;;;;;9.86;100.00;95188.25;5053226;28;20048;-66
2022/09/29 08:02:19;;;;;;;3.00;2.13;;;;;;;9.93;100.00;95192.91;5055611;28;20040;-66
2022/09/29 08:04:45;;;;;;;3.65;2.60;;;;;;;9.99;100.00;95194.03;5060977;28;20075;-66
2022/09/29 08:07:10;;;;;;;5.93;2.92;;;;;;;10.23;100.00;95181.41;5050720;28;20129;-66
2022/09/29 08:09:36;;;;;;;4.30;2.45;;;;;;;10.32;100.00;95186.47;5057759;28;20040;-66
2022/09/29 08:12:02;;;;;;;2.75;2.05;;;;;;;10.36;100.00;95189.94;5076521;28;20401;-65
2022/09/29 08:14:27;;;;;;;4.05;2.08;;;;;;;10.47;100.00;95196.09;5057656;28;20056;-65
2022/09/29 08:16:53;;;;;;;8.27;3.70;;;;;;;10.52;100.00;95195.69;5060663;28;20055;-65
2022/09/29 08:19:18;;;;;;;3.40;2.30;;;;;;;10.39;100.00;95200.09;5056957;28;20481;-66
2022/09/29 08:21:45;;;;;;;3.67;2.30;;;;;;;10.54;100.00;95203.50;5052625;28;20134;-66
2022/09/29 08:24:12;;;;;;;4.40;2.42;;;;;;;10.56;100.00;95206.59;5056800;28;20128;-66
2022/09/29 08:26:39;;;;;;;5.72;2.80;;;;;;;10.68;100.00;95203.38;5076276;28;20504;-66
2022/09/29 08:29:04;;;;;;;5.45;2.20;;;;;;;10.77;100.00;95207.59;5056895;28;20043;-62
2022/09/29 08:31:30;;;;;;;3.45;2.45;;;;;;;10.67;100.00;95210.03;5052491;28;20045;-65
2022/09/29 08:34:00;;;;;;;3.50;2.65;;;;;;;10.59;100.00;95214.03;5060720;28;20078;-64
2022/09/29 08:36:26;;;;;;;2.70;1.90;;;;;;;10.74;100.00;95217.41;5055458;28;20047;-65
2022/09/29 08:38:53;;;;;;;3.03;1.95;;;;;;;10.33;100.00;95226.31;5062480;28;20037;-68
2022/09/29 08:41:35;;;;;;;2.88;2.08;;;;;;;9.52;100.00;95229.78;5067713;28;20037;-66
2022/09/29 08:44:32;;;;;;;2.55;1.80;;;;;;;9.18;100.00;95234.94;5060374;28;20127;-64
2022/09/29 08:47:04;;;;;;;2.85;1.90;;;;;;;9.34;100.00;95234.53;5051803;28;20041;-66
2022/09/29 08:49:46;;;;;;;5.65;2.20;;;;;;;9.71;100.00;95228.56;5054580;28;20741;-66
2022/09/29 08:52:17;;;;;;;2.38;1.70;;;;;;;10.18;100.00;95235.78;5049191;28;20479;-65
2022/09/29 08:54:45;;;;;;;3.78;1.55;;;;;;;10.65;100.00;95237.03;5059147;28;20505;-65
2022/09/29 08:57:18;;;;;;;4.47;1.70;;;;;;;11.03;100.00;95239.84;5056679;28;20040;-65
2022/09/29 08:59:57;;;;;;;4.20;1.45;;;;;;;10.68;100.00;95238.97;5058675;28;20045;-66
2022/09/29 09:03:02;;;;;;;3.38;1.90;;;;;;;10.86;100.00;95240.81;5052344;28;20055;-65
2022/09/29 09:05:52;;;;;;;2.67;1.60;;;;;;;10.81;100.00;95247.50;5056371;28;20037;-65
2022/09/29 09:08:50;;;;;;;1.65;1.10;;;;;;;11.13;100.00;95251.94;5057041;28;20039;-66
2022/09/29 09:11:57;;;;;;;1.30;0.90;;;;;;;10.61;100.00;95254.69;5003639;28;20116;-66
2022/09/29 09:15:03;;;;;;;2.05;1.10;;;;;;;11.11;100.00;95251.56;5057512;28;20510;-65
2022/09/29 09:17:48;;;;;;;1.33;1.00;;;;;;;11.42;100.00;95259.88;4981102;28;20058;-65
2022/09/29 09:20:35;;;;;;;2.10;1.25;;;;;;;11.91;100.00;95263.28;5043542;28;20114;-65
2022/09/29 09:23:18;;;;;;;3.35;1.08;;;;;;;11.79;100.00;95259.09;5058007;28;20051;-64
2022/09/29 09:26:17;;;;;;;2.13;1.00;;;;;;;11.74;100.00;95259.53;5063895;28;20048;-65
2022/09/29 09:28:54;;;;;;;1.35;1.00;;;;;;;12.17;100.00;95256.31;5040837;28;20079;-65
2022/09/29 09:31:26;;;;;;;2.90;1.00;;;;;;;11.88;100.00;95253.09;5052721;28;20596;-65
2022/09/29 09:34:05;;;;;;;1.92;0.82;;;;;;;10.74;100.00;95261.22;5060396;28;20052;-65
2022/09/29 09:36:36;;;;;;;1.77;0.88;;;;;;;11.38;100.00;95264.59;5060887;28;20077;-65
2022/09/29 09:39:13;;;;;;;1.25;0.80;;;;;;;10.82;100.00;95259.22;5057545;28;20489;-64
2022/09/29 09:41:41;;;;;;;2.90;0.85;;;;;;;11.30;100.00;95258.41;5058766;28;20135;-65
2022/09/29 09:44:25;;;;;;;2.45;0.80;;;;;;;11.50;100.00;95258.59;5059335;28;20068;-65
2022/09/29 09:46:51;;;;;;;1.70;0.82;;;;;;;12.17;100.00;95255.50;5064358;28;20079;-65
2022/09/29 09:49:16;;;;;;;2.55;0.70;;;;;;;11.82;100.00;95257.47;5057780;28;20481;-66
2022/09/29 09:51:50;;;;;;;2.85;0.98;;;;;;;12.69;100.00;95246.91;5062780;28;20135;-65
2022/09/29 09:54:31;;;;;;;1.80;0.90;;;;;;;12.89;100.00;95251.72;5053293;28;20075;-66
2022/09/29 09:57:18;;;;;;;1.27;0.60;;;;;;;12.82;100.00;95252.63;5058774;28;20044;-65
2022/09/29 10:00:19;;;;;;;1.10;0.80;;;;;;;13.91;100.00;95255.06;5061584;28;20041;-66
2022/09/29 10:02:51;;;;;;;2.63;0.90;;;;;;;13.64;100.00;95255.97;5059737;28;20040;-64
2022/09/29 10:05:20;;;;;;;2.38;0.73;;;;;;;12.05;100.00;95257.59;5058775;28;20469;-66
2022/09/29 10:07:47;;;;;;;1.85;0.82;;;;;;;12.73;100.00;95249.63;5061662;28;20071;-68
2022/09/29 10:10:26;;;;;;;12.90;2.80;;;;;;;12.96;100.00;95249.66;5058695;28;20037;-66
2022/09/29 10:13:13;;;;;;;7.18;2.63;;;;;;;13.05;100.00;95257.34;5063197;28;20686;-67
2022/09/29 10:15:41;;;;;;;2.03;0.98;;;;;;;12.60;100.00;95252.97;5066462;28;20052;-66
2022/09/29 10:18:16;;;;;;;4.15;1.38;;;;;;;12.89;100.00;95269.00;5066273;28;20131;-65
2022/09/29 10:20:41;;;;;;;6.30;1.90;;;;;;;13.05;100.00;95268.34;5069875;28;20055;-66
2022/09/29 10:23:24;;;;;;;2.03;0.77;;;;;;;13.31;100.00;95266.78;5050123;28;20053;-66
2022/09/29 10:26:11;;;;;;;4.25;1.80;;;;;;;13.53;100.00;95267.16;5062413;28;20040;-65
2022/09/29 10:28:43;;;;;;;10.77;4.93;;;;;;;13.58;100.00;95271.41;5046349;28;20045;-66
2022/09/29 10:31:26;;;;;;;7.45;3.78;;;;;;;13.23;100.00;95265.28;5058847;28;20048;-65
2022/09/29 10:34:12;;;;;;;2.85;1.05;;;;;;;13.57;100.00;95267.88;5060215;28;20496;-65
2022/09/29 10:37:02;;;;;;;5.05;1.00;;;;;;;13.48;100.00;95267.63;5053893;28;20072;-66
2022/09/29 10:39:42;;;;;;;8.80;1.48;;;;;;;12.98;100.00;95280.25;5043749;28;20047;-66
2022/09/29 10:42:32;;;;;;;;;;;;;;;13.05;100.00;95276.59;5050423;28;20041;-65
2022/09/29 10:45:02;;;;;;;;;;;;;;;13.33;100.00;95280.88;5063950;28;20303;-65
2022/09/29 10:47:27;;;;;;;;;;;;;;;13.04;100.00;95279.78;5057171;28;19924;-66
2022/09/29 10:50:20;;;;;;;7.25;1.80;;;;;;;13.05;100.00;95273.06;5080147;28;19932;-66
2022/09/29 10:52:57;;;;;;;3.65;1.20;;;;;;;12.71;100.00;95276.72;5050699;28;20060;-66
2022/09/29 10:55:28;;;;;;;17.25;3.67;;;;;;;12.52;100.00;95273.47;5056719;28;20625;-66
2022/09/29 10:57:57;;;;;;;4.35;1.13;;;;;;;12.34;100.00;95273.72;5059187;28;20519;-66
2022/09/29 11:00:33;;;;;;;7.45;2.47;;;;;;;12.16;100.00;95275.91;5053714;28;20513;-66
2022/09/29 11:03:16;;;;;;;9.63;2.50;;;;;;;12.17;100.00;95267.28;5042578;28;20652;-66
2022/09/29 11:05:52;;;;;;;1.83;1.00;;;;;;;12.25;100.00;95273.44;5043302;28;20040;-65
2022/09/29 11:08:20;;;;;;;2.45;0.90;;;;;;;12.18;100.00;95268.81;5042122;28;20182;-64
2022/09/29 11:10:46;;;;;;;13.05;3.53;;;;;;;12.16;100.00;95271.19;5057604;28;20045;-65
2022/09/29 11:13:17;;;;;;;6.95;2.00;;;;;;;12.12;100.00;95272.41;5056910;28;20400;-66
2022/09/29 11:15:43;;;;;;;1.67;0.90;;;;;;;12.23;100.00;95279.34;5079752;28;20066;-67
2022/09/29 11:18:29;;;;;;;3.50;1.13;;;;;;;12.27;100.00;95279.28;5060899;28;20112;-64
2022/09/29 11:21:25;;;;;;;18.45;3.88;;;;;;;12.22;100.00;95274.25;5060690;28;20093;-65
2022/09/29 11:24:12;;;;;;;16.15;3.95;;;;;;;11.99;100.00;95281.22;5019539;28;20107;-65
2022/09/29 11:26:59;;;;;;;2.90;1.40;;;;;;;11.97;100.00;95285.53;5061386;28;20076;-65
2022/09/29 11:29:40;;;;;;;6.53;2.40;;;;;;;12.08;100.00;95288.16;5054399;28;20532;-65
2022/09/29 11:32:30;;;;;;;12.65;2.88;;;;;;;12.09;100.00;95281.50;5053183;28;20052;-65
2022/09/29 11:35:06;;;;;;;6.03;2.42;;;;;;;11.87;100.00;95281.72;5062441;28;20048;-65
2022/09/29 11:37:42;;;;;;;18.27;4.03;;;;;;;12.10;100.00;95283.03;5060326;28;20098;-64
2022/09/29 11:40:15;;;;;;;14.75;3.72;;;;;;;12.14;100.00;95286.53;5049164;28;20056;-65
2022/09/29 11:43:09;;;;;;;3.92;1.42;;;;;;;12.09;100.00;95285.00;5061621;28;20044;-65
2022/09/29 11:45:48;;;;;;;12.82;2.40;;;;;;;12.27;100.00;95287.53;5057368;28;20051;-65
2022/09/29 11:48:27;;;;;;;10.13;2.25;;;;;;;12.21;100.00;95291.94;5051956;28;20040;-66
2022/09/29 11:51:12;;;;;;;11.02;3.38;;;;;;;12.19;100.00;95283.31;5054209;28;20045;-66
2022/09/29 11:53:56;;;;;;;3.22;1.67;;;;;;;12.33;100.00;95288.63;5061736;28;20117;-66